No particular awareness of the weather is required.    There are no Weather-warnings


Meteo18 Weather Cam more information Meteo18 Weather Cam


Thunder radar more information blitzortung!


Rain radar more information rain snow radar


Visit our other weather sites:

Template documentation
and downloads

And another site



Weather Underground History page Text

Daily Summary for January 27, 2017 Units:  Both    English   Metric
« Previous Day
Next Day »
Daily Weekly Monthly Yearly Custom
  High: Low: Average:
Temperature: 50.4 °F /  10.2 °C 33.6 °F /  0.9 °C 42.1 °F /  5.6 °C
Dew Point: 39.9 °F /  4.4 °C 29.7 °F /  -1.3 °C 35.4 °F /  1.9 °C
Humidity: 91 % 65 % 78 %
Wind Speed: 13 mph /  20.9 km/h - 2.4 mph /  3.8 km/h
Wind Gust: 17 mph /  27.4 km/h - -
Wind:- - ESE
Pressure: 30 in /  1015.5 hPa 29.9 in /  1013.4 hPa -
Precipitation: 0 in /  0.0 mm    
Historical Graphs
 
 
Tabular Data for January 27, 2017
Time Temperature Dew Point Pressure Wind Wind Speed Wind Gust Humidity Rainfall Rate (Hourly)
00:02 35.2 °F /  1.8 °C 31.5 °F /  -0.3 °C 30 in /  1015.5 hPa SSE 4 mph /  6.4 km/h 17 mph /  27.4 km/h 86 % 0 in /  0.0 mm
00:07 35.1 °F /  1.7 °C 31.3 °F /  -0.4 °C 30 in /  1015.1 hPa SE 3 mph /  4.8 km/h 13 mph /  20.9 km/h 86 % 0 in /  0.0 mm
00:17 34.3 °F /  1.3 °C 30.9 °F /  -0.6 °C 30 in /  1015.1 hPa East 2 mph /  3.2 km/h 13 mph /  20.9 km/h 87 % 0 in /  0.0 mm
00:22 34.3 °F /  1.3 °C 30.9 °F /  -0.6 °C 30 in /  1015.1 hPa SSE 4 mph /  6.4 km/h 9 mph /  14.5 km/h 87 % 0 in /  0.0 mm
00:32 34.2 °F /  1.2 °C 30.7 °F /  -0.7 °C 30 in /  1015.1 hPa Calm   12 mph /  19.3 km/h 87 % 0 in /  0.0 mm
00:37 34.2 °F /  1.2 °C 30.4 °F /  -0.9 °C 30 in /  1015.1 hPa ESE 2 mph /  3.2 km/h 12 mph /  19.3 km/h 86 % 0 in /  0.0 mm
00:42 34 °F /  1.1 °C 30.2 °F /  -1.0 °C 30 in /  1015.1 hPa SE 1 mph /  1.6 km/h 8 mph /  12.9 km/h 86 % 0 in /  0.0 mm
00:57 33.6 °F /  0.9 °C 29.7 °F /  -1.3 °C 30 in /  1014.8 hPa Calm   7 mph /  11.3 km/h 85 % 0 in /  0.0 mm
01:02 33.6 °F /  0.9 °C 29.8 °F /  -1.2 °C 30 in /  1014.8 hPa Calm   7 mph /  11.3 km/h 86 % 0 in /  0.0 mm
01:07 33.6 °F /  0.9 °C 29.8 °F /  -1.2 °C 30 in /  1014.8 hPa Calm   7 mph /  11.3 km/h 86 % 0 in /  0.0 mm
01:18 33.6 °F /  0.9 °C 29.7 °F /  -1.3 °C 30 in /  1014.8 hPa Calm   7 mph /  11.3 km/h 85 % 0 in /  0.0 mm
01:22 33.6 °F /  0.9 °C 29.7 °F /  -1.3 °C 30 in /  1014.8 hPa SSE 1 mph /  1.6 km/h 7 mph /  11.3 km/h 85 % 0 in /  0.0 mm
01:27 33.6 °F /  0.9 °C 29.7 °F /  -1.3 °C 30 in /  1014.8 hPa SE 1 mph /  1.6 km/h 6 mph /  9.7 km/h 85 % 0 in /  0.0 mm
01:32 33.6 °F /  0.9 °C 29.7 °F /  -1.3 °C 30 in /  1014.8 hPa Calm   6 mph /  9.7 km/h 85 % 0 in /  0.0 mm
01:37 33.6 °F /  0.9 °C 29.8 °F /  -1.2 °C 30 in /  1014.8 hPa SSE 3 mph /  4.8 km/h 7 mph /  11.3 km/h 86 % 0 in /  0.0 mm
01:42 34 °F /  1.1 °C 30.2 °F /  -1.0 °C 30 in /  1014.4 hPa South 4 mph /  6.4 km/h 7 mph /  11.3 km/h 86 % 0 in /  0.0 mm
01:47 34 °F /  1.1 °C 30.2 °F /  -1.0 °C 30 in /  1014.4 hPa SE 3 mph /  4.8 km/h 9 mph /  14.5 km/h 86 % 0 in /  0.0 mm
01:52 34 °F /  1.1 °C 30 °F /  -1.1 °C 30 in /  1014.4 hPa SE 1 mph /  1.6 km/h 9 mph /  14.5 km/h 85 % 0 in /  0.0 mm
02:02 34.2 °F /  1.2 °C 30.4 °F /  -0.9 °C 30 in /  1014.4 hPa SE 6 mph /  9.7 km/h 6 mph /  9.7 km/h 86 % 0 in /  0.0 mm
02:12 34.3 °F /  1.3 °C 30.6 °F /  -0.8 °C 30 in /  1014.4 hPa SE 3 mph /  4.8 km/h 7 mph /  11.3 km/h 86 % 0 in /  0.0 mm
02:17 34.5 °F /  1.4 °C 30.7 °F /  -0.7 °C 30 in /  1014.4 hPa SE 2 mph /  3.2 km/h 9 mph /  14.5 km/h 86 % 0 in /  0.0 mm
02:27 34.5 °F /  1.4 °C 31.1 °F /  -0.5 °C 30 in /  1014.4 hPa SE 3 mph /  4.8 km/h 9 mph /  14.5 km/h 87 % 0 in /  0.0 mm
02:32 34.5 °F /  1.4 °C 31.1 °F /  -0.5 °C 30 in /  1014.4 hPa ESE 1 mph /  1.6 km/h 9 mph /  14.5 km/h 87 % 0 in /  0.0 mm
02:37 34.3 °F /  1.3 °C 30.9 °F /  -0.6 °C 30 in /  1014.4 hPa ESE 4 mph /  6.4 km/h 7 mph /  11.3 km/h 87 % 0 in /  0.0 mm
02:42 34.3 °F /  1.3 °C 30.9 °F /  -0.6 °C 30 in /  1014.4 hPa SSE 1 mph /  1.6 km/h 7 mph /  11.3 km/h 87 % 0 in /  0.0 mm
02:47 34.3 °F /  1.3 °C 30.9 °F /  -0.6 °C 30 in /  1014.4 hPa Calm   6 mph /  9.7 km/h 87 % 0 in /  0.0 mm
02:57 34.2 °F /  1.2 °C 30.9 °F /  -0.6 °C 30 in /  1014.4 hPa SSE 1 mph /  1.6 km/h 4 mph /  6.4 km/h 88 % 0 in /  0.0 mm
03:02 34.2 °F /  1.2 °C 30.9 °F /  -0.6 °C 29.9 in /  1014.1 hPa Calm   4 mph /  6.4 km/h 88 % 0 in /  0.0 mm
03:07 34.2 °F /  1.2 °C 30.9 °F /  -0.6 °C 29.9 in /  1014.1 hPa Calm   4 mph /  6.4 km/h 88 % 0 in /  0.0 mm
03:17 34 °F /  1.1 °C 30.7 °F /  -0.7 °C 29.9 in /  1014.1 hPa SE 2 mph /  3.2 km/h 3 mph /  4.8 km/h 88 % 0 in /  0.0 mm
03:22 34 °F /  1.1 °C 30.7 °F /  -0.7 °C 29.9 in /  1014.1 hPa SE 1 mph /  1.6 km/h 3 mph /  4.8 km/h 88 % 0 in /  0.0 mm
03:27 34 °F /  1.1 °C 31.1 °F /  -0.5 °C 29.9 in /  1013.8 hPa ESE 1 mph /  1.6 km/h 3 mph /  4.8 km/h 89 % 0 in /  0.0 mm
03:32 34.2 °F /  1.2 °C 30.9 °F /  -0.6 °C 29.9 in /  1013.8 hPa Calm   3 mph /  4.8 km/h 88 % 0 in /  0.0 mm
03:42 34.2 °F /  1.2 °C 30.9 °F /  -0.6 °C 29.9 in /  1013.8 hPa Calm   5 mph /  8.0 km/h 88 % 0 in /  0.0 mm
03:47 34.2 °F /  1.2 °C 30.9 °F /  -0.6 °C 29.9 in /  1013.8 hPa Calm   5 mph /  8.0 km/h 88 % 0 in /  0.0 mm
03:52 34.2 °F /  1.2 °C 31.3 °F /  -0.4 °C 29.9 in /  1013.8 hPa SW 1 mph /  1.6 km/h 5 mph /  8.0 km/h 89 % 0 in /  0.0 mm
03:57 34.2 °F /  1.2 °C 31.3 °F /  -0.4 °C 29.9 in /  1013.8 hPa Calm   2 mph /  3.2 km/h 89 % 0 in /  0.0 mm
04:02 34 °F /  1.1 °C 31.1 °F /  -0.5 °C 29.9 in /  1013.8 hPa Calm   2 mph /  3.2 km/h 89 % 0 in /  0.0 mm
04:22 34 °F /  1.1 °C 31.1 °F /  -0.5 °C 29.9 in /  1013.4 hPa Calm   2 mph /  3.2 km/h 89 % 0 in /  0.0 mm
04:27 34.2 °F /  1.2 °C 31.3 °F /  -0.4 °C 29.9 in /  1013.4 hPa Calm   2 mph /  3.2 km/h 89 % 0 in /  0.0 mm
04:32 34.2 °F /  1.2 °C 31.3 °F /  -0.4 °C 29.9 in /  1013.8 hPa Calm   2 mph /  3.2 km/h 89 % 0 in /  0.0 mm
04:37 34.2 °F /  1.2 °C 31.3 °F /  -0.4 °C 29.9 in /  1013.8 hPa Calm   1 mph /  1.6 km/h 89 % 0 in /  0.0 mm
04:42 34.3 °F /  1.3 °C 31.6 °F /  -0.2 °C 29.9 in /  1013.8 hPa Calm   1 mph /  1.6 km/h 90 % 0 in /  0.0 mm
04:52 34.3 °F /  1.3 °C 31.5 °F /  -0.3 °C 29.9 in /  1013.8 hPa Calm   1 mph /  1.6 km/h 89 % 0 in /  0.0 mm
04:57 34.5 °F /  1.4 °C 31.6 °F /  -0.2 °C 29.9 in /  1013.8 hPa Calm   1 mph /  1.6 km/h 89 % 0 in /  0.0 mm
05:02 34.5 °F /  1.4 °C 31.6 °F /  -0.2 °C 29.9 in /  1013.8 hPa Calm   1 mph /  1.6 km/h 89 % 0 in /  0.0 mm
05:12 34.9 °F /  1.6 °C 32 °F /  0.0 °C 29.9 in /  1013.8 hPa Calm     89 % 0 in /  0.0 mm
05:17 34.9 °F /  1.6 °C 32 °F /  0.0 °C 29.9 in /  1013.8 hPa Calm     89 % 0 in /  0.0 mm
05:22 34.9 °F /  1.6 °C 32 °F /  0.0 °C 29.9 in /  1013.8 hPa Calm   2 mph /  3.2 km/h 89 % 0 in /  0.0 mm
05:27 34.7 °F /  1.5 °C 31.5 °F /  -0.3 °C 29.9 in /  1013.8 hPa Calm   2 mph /  3.2 km/h 88 % 0 in /  0.0 mm
05:32 34.2 °F /  1.2 °C 31.3 °F /  -0.4 °C 29.9 in /  1013.8 hPa Calm   1 mph /  1.6 km/h 89 % 0 in /  0.0 mm
05:42 34.5 °F /  1.4 °C 31.6 °F /  -0.2 °C 29.9 in /  1013.4 hPa Calm   1 mph /  1.6 km/h 89 % 0 in /  0.0 mm
05:47 34.3 °F /  1.3 °C 31.5 °F /  -0.3 °C 29.9 in /  1013.4 hPa Calm   1 mph /  1.6 km/h 89 % 0 in /  0.0 mm
05:52 34.2 °F /  1.2 °C 31.3 °F /  -0.4 °C 29.9 in /  1013.8 hPa Calm   1 mph /  1.6 km/h 89 % 0 in /  0.0 mm
06:02 33.6 °F /  0.9 °C 30.9 °F /  -0.6 °C 29.9 in /  1013.8 hPa Calm   1 mph /  1.6 km/h 90 % 0 in /  0.0 mm
06:07 33.6 °F /  0.9 °C 31.3 °F /  -0.4 °C 29.9 in /  1013.8 hPa SSE 2 mph /  3.2 km/h 2 mph /  3.2 km/h 91 % 0 in /  0.0 mm
06:12 34.2 °F /  1.2 °C 31.8 °F /  -0.1 °C 29.9 in /  1013.8 hPa Calm   3 mph /  4.8 km/h 91 % 0 in /  0.0 mm
06:27 34.5 °F /  1.4 °C 31.8 °F /  -0.1 °C 29.9 in /  1013.8 hPa SE 1 mph /  1.6 km/h 3 mph /  4.8 km/h 90 % 0 in /  0.0 mm
06:32 35.1 °F /  1.7 °C 32.4 °F /  0.2 °C 29.9 in /  1013.8 hPa Calm   3 mph /  4.8 km/h 90 % 0 in /  0.0 mm
06:42 35.4 °F /  1.9 °C 32.2 °F /  0.1 °C 29.9 in /  1013.8 hPa ESE 1 mph /  1.6 km/h 3 mph /  4.8 km/h 88 % 0 in /  0.0 mm
06:52 35.4 °F /  1.9 °C 32.2 °F /  0.1 °C 29.9 in /  1013.8 hPa Calm   2 mph /  3.2 km/h 88 % 0 in /  0.0 mm
07:02 35.4 °F /  1.9 °C 32.5 °F /  0.3 °C 29.9 in /  1013.8 hPa Calm   2 mph /  3.2 km/h 89 % 0 in /  0.0 mm
07:12 35.2 °F /  1.8 °C 31.8 °F /  -0.1 °C 29.9 in /  1013.8 hPa SSW 1 mph /  1.6 km/h 5 mph /  8.0 km/h 87 % 0 in /  0.0 mm
07:17 35.4 °F /  1.9 °C 32.7 °F /  0.4 °C 29.9 in /  1013.8 hPa SE 2 mph /  3.2 km/h 5 mph /  8.0 km/h 90 % 0 in /  0.0 mm
07:22 36 °F /  2.2 °C 32.7 °F /  0.4 °C 29.9 in /  1013.8 hPa Calm   5 mph /  8.0 km/h 88 % 0 in /  0.0 mm
07:27 36 °F /  2.2 °C 32.7 °F /  0.4 °C 29.9 in /  1013.8 hPa Calm   5 mph /  8.0 km/h 88 % 0 in /  0.0 mm
07:32 35.4 °F /  1.9 °C 32 °F /  0.0 °C 29.9 in /  1013.8 hPa Calm   5 mph /  8.0 km/h 87 % 0 in /  0.0 mm
07:37 35.2 °F /  1.8 °C 32.4 °F /  0.2 °C 29.9 in /  1013.8 hPa SSW 2 mph /  3.2 km/h 2 mph /  3.2 km/h 89 % 0 in /  0.0 mm
07:42 35.6 °F /  2.0 °C 32.7 °F /  0.4 °C 29.9 in /  1013.8 hPa Calm   2 mph /  3.2 km/h 89 % 0 in /  0.0 mm
07:47 35.8 °F /  2.1 °C 32.9 °F /  0.5 °C 29.9 in /  1013.8 hPa Calm   3 mph /  4.8 km/h 89 % 0 in /  0.0 mm
07:52 35.8 °F /  2.1 °C 32.5 °F /  0.3 °C 29.9 in /  1013.8 hPa Calm   3 mph /  4.8 km/h 88 % 0 in /  0.0 mm
07:57 36 °F /  2.2 °C 33.1 °F /  0.6 °C 29.9 in /  1014.1 hPa WSW 1 mph /  1.6 km/h 2 mph /  3.2 km/h 89 % 0 in /  0.0 mm
08:07 36.3 °F /  2.4 °C 33.4 °F /  0.8 °C 29.9 in /  1013.8 hPa Calm   1 mph /  1.6 km/h 89 % 0 in /  0.0 mm
08:12 36.5 °F /  2.5 °C 33.3 °F /  0.7 °C 29.9 in /  1014.1 hPa ESE 1 mph /  1.6 km/h 1 mph /  1.6 km/h 88 % 0 in /  0.0 mm
08:17 37 °F /  2.8 °C 33.8 °F /  1.0 °C 29.9 in /  1014.1 hPa Calm   2 mph /  3.2 km/h 88 % 0 in /  0.0 mm
08:22 37.2 °F /  2.9 °C 33.8 °F /  1.0 °C 29.9 in /  1014.1 hPa Calm   2 mph /  3.2 km/h 87 % 0 in /  0.0 mm
08:27 37.2 °F /  2.9 °C 33.8 °F /  1.0 °C 30 in /  1014.4 hPa Calm   2 mph /  3.2 km/h 87 % 0 in /  0.0 mm
08:32 37.2 °F /  2.9 °C 33.8 °F /  1.0 °C 30 in /  1014.4 hPa SE 1 mph /  1.6 km/h 2 mph /  3.2 km/h 87 % 0 in /  0.0 mm
08:42 37.6 °F /  3.1 °C 33.8 °F /  1.0 °C 30 in /  1014.4 hPa Calm   3 mph /  4.8 km/h 86 % 0 in /  0.0 mm
08:47 37.9 °F /  3.3 °C 34.2 °F /  1.2 °C 30 in /  1014.4 hPa ESE 2 mph /  3.2 km/h 3 mph /  4.8 km/h 86 % 0 in /  0.0 mm
08:52 38.1 °F /  3.4 °C 34.3 °F /  1.3 °C 30 in /  1014.4 hPa Calm   3 mph /  4.8 km/h 86 % 0 in /  0.0 mm
09:02 38.5 °F /  3.6 °C 34.3 °F /  1.3 °C 30 in /  1014.4 hPa Calm   2 mph /  3.2 km/h 85 % 0 in /  0.0 mm
09:12 38.8 °F /  3.8 °C 34.7 °F /  1.5 °C 30 in /  1014.4 hPa Calm   3 mph /  4.8 km/h 85 % 0 in /  0.0 mm
09:17 39 °F /  3.9 °C 34.9 °F /  1.6 °C 30 in /  1014.4 hPa Calm   1 mph /  1.6 km/h 85 % 0 in /  0.0 mm
09:22 39.2 °F /  4.0 °C 35.1 °F /  1.7 °C 30 in /  1014.4 hPa Calm   1 mph /  1.6 km/h 85 % 0 in /  0.0 mm
09:32 39.6 °F /  4.2 °C 35.4 °F /  1.9 °C 30 in /  1014.4 hPa Calm   1 mph /  1.6 km/h 85 % 0 in /  0.0 mm
09:42 40.3 °F /  4.6 °C 35.8 °F /  2.1 °C 30 in /  1014.4 hPa Calm   2 mph /  3.2 km/h 84 % 0 in /  0.0 mm
09:47 40.3 °F /  4.6 °C 35.6 °F /  2.0 °C 30 in /  1014.4 hPa Calm   3 mph /  4.8 km/h 83 % 0 in /  0.0 mm
09:52 40.5 °F /  4.7 °C 35.8 °F /  2.1 °C 30 in /  1014.4 hPa Calm   3 mph /  4.8 km/h 83 % 0 in /  0.0 mm
10:02 40.8 °F /  4.9 °C 36.1 °F /  2.3 °C 30 in /  1014.4 hPa Calm   3 mph /  4.8 km/h 83 % 0 in /  0.0 mm
10:12 41.2 °F /  5.1 °C 36.5 °F /  2.5 °C 30 in /  1014.4 hPa Calm   2 mph /  3.2 km/h 83 % 0 in /  0.0 mm
10:22 41.5 °F /  5.3 °C 36.7 °F /  2.6 °C 30 in /  1014.4 hPa SE 3 mph /  4.8 km/h 4 mph /  6.4 km/h 83 % 0 in /  0.0 mm
10:32 42.4 °F /  5.8 °C 37.4 °F /  3.0 °C 30 in /  1014.4 hPa ESE 1 mph /  1.6 km/h 6 mph /  9.7 km/h 82 % 0 in /  0.0 mm
10:37 42.6 °F /  5.9 °C 37.6 °F /  3.1 °C 30 in /  1014.4 hPa SE 3 mph /  4.8 km/h 7 mph /  11.3 km/h 82 % 0 in /  0.0 mm
10:42 43.3 °F /  6.3 °C 37.6 °F /  3.1 °C 30 in /  1014.4 hPa SE 3 mph /  4.8 km/h 7 mph /  11.3 km/h 80 % 0 in /  0.0 mm
10:47 43.5 °F /  6.4 °C 37.8 °F /  3.2 °C 30 in /  1014.4 hPa ESE 6 mph /  9.7 km/h 11 mph /  17.7 km/h 80 % 0 in /  0.0 mm
10:52 43.9 °F /  6.6 °C 38.1 °F /  3.4 °C 30 in /  1014.4 hPa East 3 mph /  4.8 km/h 11 mph /  17.7 km/h 80 % 0 in /  0.0 mm
11:02 44.4 °F /  6.9 °C 38.3 °F /  3.5 °C 30 in /  1014.4 hPa SE 9 mph /  14.5 km/h 10 mph /  16.1 km/h 79 % 0 in /  0.0 mm
11:12 45 °F /  7.2 °C 38.5 °F /  3.6 °C 30 in /  1014.4 hPa SE 6 mph /  9.7 km/h 12 mph /  19.3 km/h 78 % 0 in /  0.0 mm
11:17 45.1 °F /  7.3 °C 38.3 °F /  3.5 °C 30 in /  1014.4 hPa SSE 6 mph /  9.7 km/h 16 mph /  25.7 km/h 77 % 0 in /  0.0 mm
11:37 45.3 °F /  7.4 °C 38.8 °F /  3.8 °C 30 in /  1014.4 hPa SE 6 mph /  9.7 km/h 12 mph /  19.3 km/h 78 % 0 in /  0.0 mm
11:42 45.3 °F /  7.4 °C 38.8 °F /  3.8 °C 30 in /  1014.4 hPa SE 4 mph /  6.4 km/h 12 mph /  19.3 km/h 78 % 0 in /  0.0 mm
11:48 45.3 °F /  7.4 °C 38.8 °F /  3.8 °C 30 in /  1014.4 hPa SE 5 mph /  8.0 km/h 10 mph /  16.1 km/h 78 % 0 in /  0.0 mm
11:57 45.3 °F /  7.4 °C 38.8 °F /  3.8 °C 30 in /  1014.4 hPa SE 8 mph /  12.9 km/h 12 mph /  19.3 km/h 78 % 0 in /  0.0 mm
12:07 45.7 °F /  7.6 °C 39.2 °F /  4.0 °C 30 in /  1014.4 hPa ESE 5 mph /  8.0 km/h 11 mph /  17.7 km/h 78 % 0 in /  0.0 mm
12:12 45.9 °F /  7.7 °C 39.4 °F /  4.1 °C 30 in /  1014.4 hPa SE 2 mph /  3.2 km/h 11 mph /  17.7 km/h 78 % 0 in /  0.0 mm
12:22 46.2 °F /  7.9 °C 39.4 °F /  4.1 °C 30 in /  1014.4 hPa SE 5 mph /  8.0 km/h 11 mph /  17.7 km/h 77 % 0 in /  0.0 mm
12:32 46.9 °F /  8.3 °C 39.4 °F /  4.1 °C 29.9 in /  1014.1 hPa SE 9 mph /  14.5 km/h 11 mph /  17.7 km/h 75 % 0 in /  0.0 mm
12:42 47.7 °F /  8.7 °C 39.4 °F /  4.1 °C 29.9 in /  1014.1 hPa ESE 5 mph /  8.0 km/h 15 mph /  24.1 km/h 73 % 0 in /  0.0 mm
12:52 48 °F /  8.9 °C 39.7 °F /  4.3 °C 30 in /  1014.4 hPa SE 8 mph /  12.9 km/h 14 mph /  22.5 km/h 73 % 0 in /  0.0 mm
12:57 48 °F /  8.9 °C 39.4 °F /  4.1 °C 29.9 in /  1014.1 hPa SE 4 mph /  6.4 km/h 14 mph /  22.5 km/h 72 % 0 in /  0.0 mm
13:02 48.4 °F /  9.1 °C 39.4 °F /  4.1 °C 29.9 in /  1014.1 hPa ESE 4 mph /  6.4 km/h 15 mph /  24.1 km/h 71 % 0 in /  0.0 mm
13:12 48.4 °F /  9.1 °C 39.4 °F /  4.1 °C 29.9 in /  1014.1 hPa SE 4 mph /  6.4 km/h 15 mph /  24.1 km/h 71 % 0 in /  0.0 mm
13:17 48.6 °F /  9.2 °C 39.6 °F /  4.2 °C 29.9 in /  1014.1 hPa ESE 5 mph /  8.0 km/h 15 mph /  24.1 km/h 71 % 0 in /  0.0 mm
13:22 48.6 °F /  9.2 °C 39.9 °F /  4.4 °C 29.9 in /  1014.1 hPa SE 7 mph /  11.3 km/h 15 mph /  24.1 km/h 72 % 0 in /  0.0 mm
13:27 48.6 °F /  9.2 °C 39.6 °F /  4.2 °C 29.9 in /  1014.1 hPa SE 8 mph /  12.9 km/h 15 mph /  24.1 km/h 71 % 0 in /  0.0 mm
13:32 48.7 °F /  9.3 °C 39.4 °F /  4.1 °C 29.9 in /  1014.1 hPa SSE 10 mph /  16.1 km/h 14 mph /  22.5 km/h 70 % 0 in /  0.0 mm
13:37 48.7 °F /  9.3 °C 39.4 °F /  4.1 °C 29.9 in /  1014.1 hPa SE 5 mph /  8.0 km/h 14 mph /  22.5 km/h 70 % 0 in /  0.0 mm
13:47 48.9 °F /  9.4 °C 39.9 °F /  4.4 °C 29.9 in /  1014.1 hPa ESE 13 mph /  20.9 km/h 13 mph /  20.9 km/h 71 % 0 in /  0.0 mm
13:52 48.9 °F /  9.4 °C 39.6 °F /  4.2 °C 29.9 in /  1013.8 hPa ESE 8 mph /  12.9 km/h 12 mph /  19.3 km/h 70 % 0 in /  0.0 mm
13:57 48.9 °F /  9.4 °C 39.9 °F /  4.4 °C 29.9 in /  1013.8 hPa SE 2 mph /  3.2 km/h 13 mph /  20.9 km/h 71 % 0 in /  0.0 mm
14:02 48.9 °F /  9.4 °C 39.6 °F /  4.2 °C 29.9 in /  1014.1 hPa SE 4 mph /  6.4 km/h 13 mph /  20.9 km/h 70 % 0 in /  0.0 mm
14:07 48.9 °F /  9.4 °C 39.6 °F /  4.2 °C 29.9 in /  1013.8 hPa SE 4 mph /  6.4 km/h 10 mph /  16.1 km/h 70 % 0 in /  0.0 mm
14:12 48.9 °F /  9.4 °C 39.6 °F /  4.2 °C 29.9 in /  1013.8 hPa ESE 7 mph /  11.3 km/h 10 mph /  16.1 km/h 70 % 0 in /  0.0 mm
14:17 48.9 °F /  9.4 °C 39.6 °F /  4.2 °C 29.9 in /  1013.8 hPa ESE 5 mph /  8.0 km/h 10 mph /  16.1 km/h 70 % 0 in /  0.0 mm
14:22 48.9 °F /  9.4 °C 39.6 °F /  4.2 °C 29.9 in /  1013.8 hPa SE 3 mph /  4.8 km/h 9 mph /  14.5 km/h 70 % 0 in /  0.0 mm
14:27 49.1 °F /  9.5 °C 39.7 °F /  4.3 °C 29.9 in /  1013.8 hPa SE 5 mph /  8.0 km/h 9 mph /  14.5 km/h 70 % 0 in /  0.0 mm
14:37 49.3 °F /  9.6 °C 39.6 °F /  4.2 °C 29.9 in /  1013.8 hPa SE 6 mph /  9.7 km/h 10 mph /  16.1 km/h 69 % 0 in /  0.0 mm
14:42 49.5 °F /  9.7 °C 39.7 °F /  4.3 °C 29.9 in /  1013.8 hPa SSE 4 mph /  6.4 km/h 10 mph /  16.1 km/h 69 % 0 in /  0.0 mm
14:52 49.8 °F /  9.9 °C 39.4 °F /  4.1 °C 29.9 in /  1013.8 hPa SSE 5 mph /  8.0 km/h 12 mph /  19.3 km/h 67 % 0 in /  0.0 mm
15:02 50.2 °F /  10.1 °C 39.6 °F /  4.2 °C 29.9 in /  1013.4 hPa SE 6 mph /  9.7 km/h 12 mph /  19.3 km/h 67 % 0 in /  0.0 mm
15:12 50.4 °F /  10.2 °C 39.4 °F /  4.1 °C 29.9 in /  1013.4 hPa SE 3 mph /  4.8 km/h 12 mph /  19.3 km/h 66 % 0 in /  0.0 mm
15:17 50.2 °F /  10.1 °C 39.2 °F /  4.0 °C 29.9 in /  1013.4 hPa SE 4 mph /  6.4 km/h 14 mph /  22.5 km/h 66 % 0 in /  0.0 mm
15:22 50.2 °F /  10.1 °C 39.2 °F /  4.0 °C 29.9 in /  1013.4 hPa SE 6 mph /  9.7 km/h 14 mph /  22.5 km/h 66 % 0 in /  0.0 mm
15:27 50.2 °F /  10.1 °C 39.2 °F /  4.0 °C 29.9 in /  1013.8 hPa ESE 6 mph /  9.7 km/h 16 mph /  25.7 km/h 66 % 0 in /  0.0 mm
15:32 50.4 °F /  10.2 °C 39 °F /  3.9 °C 29.9 in /  1013.8 hPa SE 6 mph /  9.7 km/h 16 mph /  25.7 km/h 65 % 0 in /  0.0 mm
15:42 50.4 °F /  10.2 °C 39 °F /  3.9 °C 29.9 in /  1013.8 hPa ESE 9 mph /  14.5 km/h 15 mph /  24.1 km/h 65 % 0 in /  0.0 mm
15:47 50.2 °F /  10.1 °C 39.2 °F /  4.0 °C 29.9 in /  1013.8 hPa ESE 5 mph /  8.0 km/h 15 mph /  24.1 km/h 66 % 0 in /  0.0 mm
15:52 49.8 °F /  9.9 °C 38.8 °F /  3.8 °C 29.9 in /  1013.8 hPa SE 7 mph /  11.3 km/h 15 mph /  24.1 km/h 66 % 0 in /  0.0 mm
15:57 49.8 °F /  9.9 °C 39.4 °F /  4.1 °C 29.9 in /  1013.8 hPa ESE 5 mph /  8.0 km/h 15 mph /  24.1 km/h 67 % 0 in /  0.0 mm
16:02 49.6 °F /  9.8 °C 39.2 °F /  4.0 °C 29.9 in /  1013.8 hPa ESE 6 mph /  9.7 km/h 11 mph /  17.7 km/h 67 % 0 in /  0.0 mm
16:12 49.3 °F /  9.6 °C 39.2 °F /  4.0 °C 29.9 in /  1013.8 hPa East 3 mph /  4.8 km/h 11 mph /  17.7 km/h 68 % 0 in /  0.0 mm
16:17 48.7 °F /  9.3 °C 39 °F /  3.9 °C 29.9 in /  1013.8 hPa ESE 3 mph /  4.8 km/h 10 mph /  16.1 km/h 69 % 0 in /  0.0 mm
16:22 48.6 °F /  9.2 °C 38.8 °F /  3.8 °C 29.9 in /  1013.8 hPa SSE 1 mph /  1.6 km/h 9 mph /  14.5 km/h 69 % 0 in /  0.0 mm
16:27 48.4 °F /  9.1 °C 38.7 °F /  3.7 °C 29.9 in /  1013.8 hPa East 2 mph /  3.2 km/h 8 mph /  12.9 km/h 69 % 0 in /  0.0 mm
16:32 48.2 °F /  9.0 °C 38.5 °F /  3.6 °C 29.9 in /  1014.1 hPa East 3 mph /  4.8 km/h 7 mph /  11.3 km/h 69 % 0 in /  0.0 mm
16:37 48 °F /  8.9 °C 38.7 °F /  3.7 °C 29.9 in /  1014.1 hPa East 2 mph /  3.2 km/h 7 mph /  11.3 km/h 70 % 0 in /  0.0 mm
16:42 47.8 °F /  8.8 °C 38.5 °F /  3.6 °C 29.9 in /  1014.1 hPa ESE 1 mph /  1.6 km/h 7 mph /  11.3 km/h 70 % 0 in /  0.0 mm
16:47 47.7 °F /  8.7 °C 38.3 °F /  3.5 °C 29.9 in /  1014.1 hPa East 3 mph /  4.8 km/h 6 mph /  9.7 km/h 70 % 0 in /  0.0 mm
16:57 47.5 °F /  8.6 °C 38.1 °F /  3.4 °C 29.9 in /  1014.1 hPa ESE 2 mph /  3.2 km/h 6 mph /  9.7 km/h 70 % 0 in /  0.0 mm
17:02 47.3 °F /  8.5 °C 37.9 °F /  3.3 °C 29.9 in /  1014.1 hPa ESE 4 mph /  6.4 km/h 7 mph /  11.3 km/h 70 % 0 in /  0.0 mm
17:12 47.1 °F /  8.4 °C 38.1 °F /  3.4 °C 29.9 in /  1013.8 hPa ESE 2 mph /  3.2 km/h 7 mph /  11.3 km/h 71 % 0 in /  0.0 mm
17:17 47.1 °F /  8.4 °C 37.8 °F /  3.2 °C 29.9 in /  1013.8 hPa SE 5 mph /  8.0 km/h 6 mph /  9.7 km/h 70 % 0 in /  0.0 mm
17:22 47.1 °F /  8.4 °C 37.8 °F /  3.2 °C 29.9 in /  1013.8 hPa ESE 2 mph /  3.2 km/h 7 mph /  11.3 km/h 70 % 0 in /  0.0 mm
17:27 46.8 °F /  8.2 °C 37.9 °F /  3.3 °C 29.9 in /  1014.1 hPa SE 2 mph /  3.2 km/h 10 mph /  16.1 km/h 71 % 0 in /  0.0 mm
17:32 46.4 °F /  8.0 °C 37.9 °F /  3.3 °C 29.9 in /  1013.8 hPa East 3 mph /  4.8 km/h 10 mph /  16.1 km/h 72 % 0 in /  0.0 mm
17:37 46.2 °F /  7.9 °C 37.8 °F /  3.2 °C 29.9 in /  1013.8 hPa East 4 mph /  6.4 km/h 10 mph /  16.1 km/h 72 % 0 in /  0.0 mm
17:42 46.2 °F /  7.9 °C 37.8 °F /  3.2 °C 29.9 in /  1013.8 hPa ESE 3 mph /  4.8 km/h 6 mph /  9.7 km/h 72 % 0 in /  0.0 mm
17:47 46 °F /  7.8 °C 37.6 °F /  3.1 °C 29.9 in /  1013.8 hPa SE 3 mph /  4.8 km/h 7 mph /  11.3 km/h 72 % 0 in /  0.0 mm
17:52 46 °F /  7.8 °C 37.6 °F /  3.1 °C 29.9 in /  1014.1 hPa SE 3 mph /  4.8 km/h 7 mph /  11.3 km/h 72 % 0 in /  0.0 mm
17:57 46 °F /  7.8 °C 37.6 °F /  3.1 °C 29.9 in /  1014.1 hPa ESE 8 mph /  12.9 km/h 8 mph /  12.9 km/h 72 % 0 in /  0.0 mm
18:02 46 °F /  7.8 °C 37.6 °F /  3.1 °C 29.9 in /  1014.1 hPa SE 3 mph /  4.8 km/h 8 mph /  12.9 km/h 72 % 0 in /  0.0 mm
18:12 45.7 °F /  7.6 °C 37.2 °F /  2.9 °C 29.9 in /  1014.1 hPa SE 3 mph /  4.8 km/h 8 mph /  12.9 km/h 72 % 0 in /  0.0 mm
18:17 45.9 °F /  7.7 °C 37.4 °F /  3.0 °C 29.9 in /  1014.1 hPa East 5 mph /  8.0 km/h 8 mph /  12.9 km/h 72 % 0 in /  0.0 mm
18:22 45.7 °F /  7.6 °C 37.2 °F /  2.9 °C 29.9 in /  1014.1 hPa SE 4 mph /  6.4 km/h 10 mph /  16.1 km/h 72 % 0 in /  0.0 mm
18:32 45.5 °F /  7.5 °C 37.4 °F /  3.0 °C 30 in /  1014.4 hPa ESE 2 mph /  3.2 km/h 10 mph /  16.1 km/h 73 % 0 in /  0.0 mm
18:42 45.1 °F /  7.3 °C 37 °F /  2.8 °C 30 in /  1014.4 hPa SE 3 mph /  4.8 km/h 10 mph /  16.1 km/h 73 % 0 in /  0.0 mm
18:47 45 °F /  7.2 °C 36.9 °F /  2.7 °C 30 in /  1014.4 hPa ESE 3 mph /  4.8 km/h 10 mph /  16.1 km/h 73 % 0 in /  0.0 mm
18:57 44.6 °F /  7.0 °C 37.2 °F /  2.9 °C 30 in /  1014.4 hPa ESE 4 mph /  6.4 km/h 6 mph /  9.7 km/h 75 % 0 in /  0.0 mm
19:02 44.8 °F /  7.1 °C 37 °F /  2.8 °C 30 in /  1014.4 hPa East 2 mph /  3.2 km/h 6 mph /  9.7 km/h 74 % 0 in /  0.0 mm
19:12 44.8 °F /  7.1 °C 37.4 °F /  3.0 °C 30 in /  1014.4 hPa East 2 mph /  3.2 km/h 7 mph /  11.3 km/h 75 % 0 in /  0.0 mm
19:17 44.8 °F /  7.1 °C 37 °F /  2.8 °C 30 in /  1014.4 hPa East 3 mph /  4.8 km/h 7 mph /  11.3 km/h 74 % 0 in /  0.0 mm
19:22 45 °F /  7.2 °C 37.2 °F /  2.9 °C 30 in /  1014.8 hPa ESE 2 mph /  3.2 km/h 5 mph /  8.0 km/h 74 % 0 in /  0.0 mm
19:27 45 °F /  7.2 °C 37.2 °F /  2.9 °C 30 in /  1014.4 hPa ESE 1 mph /  1.6 km/h 5 mph /  8.0 km/h 74 % 0 in /  0.0 mm
19:32 45 °F /  7.2 °C 37.2 °F /  2.9 °C 30 in /  1014.8 hPa ESE 1 mph /  1.6 km/h 5 mph /  8.0 km/h 74 % 0 in /  0.0 mm
19:37 45.1 °F /  7.3 °C 37.4 °F /  3.0 °C 30 in /  1014.4 hPa ESE 2 mph /  3.2 km/h 3 mph /  4.8 km/h 74 % 0 in /  0.0 mm
19:42 45.3 °F /  7.4 °C 37.2 °F /  2.9 °C 30 in /  1014.4 hPa East 1 mph /  1.6 km/h 3 mph /  4.8 km/h 73 % 0 in /  0.0 mm
19:47 45.9 °F /  7.7 °C 37.8 °F /  3.2 °C 30 in /  1014.4 hPa ESE 3 mph /  4.8 km/h 4 mph /  6.4 km/h 73 % 0 in /  0.0 mm
19:52 46.2 °F /  7.9 °C 37.8 °F /  3.2 °C 30 in /  1014.4 hPa East 2 mph /  3.2 km/h 4 mph /  6.4 km/h 72 % 0 in /  0.0 mm
19:57 46 °F /  7.8 °C 37.6 °F /  3.1 °C 30 in /  1014.4 hPa ESE 1 mph /  1.6 km/h 6 mph /  9.7 km/h 72 % 0 in /  0.0 mm
20:02 45.7 °F /  7.6 °C 37.2 °F /  2.9 °C 30 in /  1014.4 hPa Calm   6 mph /  9.7 km/h 72 % 0 in /  0.0 mm
20:12 45.7 °F /  7.6 °C 37.6 °F /  3.1 °C 30 in /  1014.8 hPa East 1 mph /  1.6 km/h 6 mph /  9.7 km/h 73 % 0 in /  0.0 mm
20:17 45.9 °F /  7.7 °C 37.4 °F /  3.0 °C 30 in /  1014.8 hPa ESE 1 mph /  1.6 km/h 4 mph /  6.4 km/h 72 % 0 in /  0.0 mm
20:22 46 °F /  7.8 °C 37.2 °F /  2.9 °C 30 in /  1014.8 hPa East 5 mph /  8.0 km/h 5 mph /  8.0 km/h 71 % 0 in /  0.0 mm
20:27 46.4 °F /  8.0 °C 37.2 °F /  2.9 °C 30 in /  1014.8 hPa SE 3 mph /  4.8 km/h 4 mph /  6.4 km/h 70 % 0 in /  0.0 mm
20:32 46.4 °F /  8.0 °C 37.2 °F /  2.9 °C 30 in /  1014.8 hPa Calm   6 mph /  9.7 km/h 70 % 0 in /  0.0 mm
20:37 46 °F /  7.8 °C 36.9 °F /  2.7 °C 30 in /  1014.8 hPa Calm   6 mph /  9.7 km/h 70 % 0 in /  0.0 mm
20:42 45.5 °F /  7.5 °C 36.7 °F /  2.6 °C 30 in /  1014.8 hPa ENE 1 mph /  1.6 km/h 6 mph /  9.7 km/h 71 % 0 in /  0.0 mm
20:47 45.1 °F /  7.3 °C 36.7 °F /  2.6 °C 30 in /  1014.4 hPa ENE 3 mph /  4.8 km/h 6 mph /  9.7 km/h 72 % 0 in /  0.0 mm
20:52 45.3 °F /  7.4 °C 36.9 °F /  2.7 °C 30 in /  1014.4 hPa East 1 mph /  1.6 km/h 4 mph /  6.4 km/h 72 % 0 in /  0.0 mm
20:57 45.1 °F /  7.3 °C 36.7 °F /  2.6 °C 30 in /  1014.4 hPa East 2 mph /  3.2 km/h 4 mph /  6.4 km/h 72 % 0 in /  0.0 mm
21:02 45.3 °F /  7.4 °C 36.9 °F /  2.7 °C 30 in /  1014.4 hPa ESE 1 mph /  1.6 km/h 4 mph /  6.4 km/h 72 % 0 in /  0.0 mm
21:07 45.3 °F /  7.4 °C 36.9 °F /  2.7 °C 30 in /  1014.4 hPa ESE 1 mph /  1.6 km/h 4 mph /  6.4 km/h 72 % 0 in /  0.0 mm
21:12 45.3 °F /  7.4 °C 36.9 °F /  2.7 °C 30 in /  1014.4 hPa ENE 3 mph /  4.8 km/h 4 mph /  6.4 km/h 72 % 0 in /  0.0 mm
21:17 45.3 °F /  7.4 °C 36.5 °F /  2.5 °C 30 in /  1014.4 hPa ESE 2 mph /  3.2 km/h 7 mph /  11.3 km/h 71 % 0 in /  0.0 mm
21:22 45.1 °F /  7.3 °C 36.7 °F /  2.6 °C 30 in /  1014.4 hPa ESE 1 mph /  1.6 km/h 7 mph /  11.3 km/h 72 % 0 in /  0.0 mm
21:27 45 °F /  7.2 °C 36.5 °F /  2.5 °C 30 in /  1014.4 hPa SE 2 mph /  3.2 km/h 7 mph /  11.3 km/h 72 % 0 in /  0.0 mm
21:32 45 °F /  7.2 °C 36.5 °F /  2.5 °C 30 in /  1014.4 hPa East 1 mph /  1.6 km/h 7 mph /  11.3 km/h 72 % 0 in /  0.0 mm
21:37 45 °F /  7.2 °C 36.5 °F /  2.5 °C 30 in /  1014.4 hPa SE 1 mph /  1.6 km/h 7 mph /  11.3 km/h 72 % 0 in /  0.0 mm
21:42 45 °F /  7.2 °C 36.5 °F /  2.5 °C 30 in /  1014.4 hPa ESE 1 mph /  1.6 km/h 7 mph /  11.3 km/h 72 % 0 in /  0.0 mm
21:47 45 °F /  7.2 °C 36.5 °F /  2.5 °C 30 in /  1014.4 hPa East 1 mph /  1.6 km/h 4 mph /  6.4 km/h 72 % 0 in /  0.0 mm
21:52 45 °F /  7.2 °C 36.5 °F /  2.5 °C 30 in /  1014.4 hPa East 2 mph /  3.2 km/h 4 mph /  6.4 km/h 72 % 0 in /  0.0 mm
21:57 45 °F /  7.2 °C 36.5 °F /  2.5 °C 30 in /  1014.4 hPa ESE 1 mph /  1.6 km/h 4 mph /  6.4 km/h 72 % 0 in /  0.0 mm
22:02 45 °F /  7.2 °C 36.1 °F /  2.3 °C 30 in /  1014.4 hPa ESE 1 mph /  1.6 km/h 4 mph /  6.4 km/h 71 % 0 in /  0.0 mm
22:12 45.5 °F /  7.5 °C 36.3 °F /  2.4 °C 30 in /  1014.4 hPa ESE 3 mph /  4.8 km/h 4 mph /  6.4 km/h 70 % 0 in /  0.0 mm
22:17 45.7 °F /  7.6 °C 36.1 °F /  2.3 °C 30 in /  1014.4 hPa East 1 mph /  1.6 km/h 5 mph /  8.0 km/h 69 % 0 in /  0.0 mm
22:22 45.9 °F /  7.7 °C 36.3 °F /  2.4 °C 30 in /  1014.8 hPa ESE 1 mph /  1.6 km/h 5 mph /  8.0 km/h 69 % 0 in /  0.0 mm
22:27 46 °F /  7.8 °C 36.1 °F /  2.3 °C 30 in /  1014.8 hPa East 5 mph /  8.0 km/h 5 mph /  8.0 km/h 68 % 0 in /  0.0 mm
22:32 46.2 °F /  7.9 °C 36 °F /  2.2 °C 30 in /  1014.8 hPa East 3 mph /  4.8 km/h 6 mph /  9.7 km/h 67 % 0 in /  0.0 mm
22:37 46.4 °F /  8.0 °C 36 °F /  2.2 °C 30 in /  1014.8 hPa East 3 mph /  4.8 km/h 6 mph /  9.7 km/h 67 % 0 in /  0.0 mm
22:42 46.6 °F /  8.1 °C 36.1 °F /  2.3 °C 30 in /  1014.8 hPa East 3 mph /  4.8 km/h 6 mph /  9.7 km/h 67 % 0 in /  0.0 mm
22:52 46.6 °F /  8.1 °C 36.1 °F /  2.3 °C 30 in /  1014.4 hPa ESE 1 mph /  1.6 km/h 7 mph /  11.3 km/h 67 % 0 in /  0.0 mm
22:57 46.4 °F /  8.0 °C 36 °F /  2.2 °C 30 in /  1014.4 hPa SE 2 mph /  3.2 km/h 7 mph /  11.3 km/h 67 % 0 in /  0.0 mm
23:02 46.2 °F /  7.9 °C 36.3 °F /  2.4 °C 30 in /  1014.4 hPa East 2 mph /  3.2 km/h 6 mph /  9.7 km/h 68 % 0 in /  0.0 mm
23:07 46.2 °F /  7.9 °C 36.3 °F /  2.4 °C 30 in /  1014.4 hPa SE 2 mph /  3.2 km/h 6 mph /  9.7 km/h 68 % 0 in /  0.0 mm
23:12 46.6 °F /  8.1 °C 36.1 °F /  2.3 °C 30 in /  1014.4 hPa ESE 3 mph /  4.8 km/h 6 mph /  9.7 km/h 67 % 0 in /  0.0 mm
23:17 46.6 °F /  8.1 °C 36.1 °F /  2.3 °C 30 in /  1014.4 hPa ESE 3 mph /  4.8 km/h 6 mph /  9.7 km/h 67 % 0 in /  0.0 mm
23:22 46.8 °F /  8.2 °C 36.3 °F /  2.4 °C 30 in /  1014.4 hPa East 2 mph /  3.2 km/h 6 mph /  9.7 km/h 67 % 0 in /  0.0 mm
23:27 46.8 °F /  8.2 °C 36 °F /  2.2 °C 30 in /  1014.8 hPa East 4 mph /  6.4 km/h 6 mph /  9.7 km/h 66 % 0 in /  0.0 mm
23:32 46.8 °F /  8.2 °C 36.3 °F /  2.4 °C 30 in /  1014.8 hPa East 2 mph /  3.2 km/h 6 mph /  9.7 km/h 67 % 0 in /  0.0 mm
23:37 46.8 °F /  8.2 °C 36.3 °F /  2.4 °C 30 in /  1014.8 hPa ESE 2 mph /  3.2 km/h 6 mph /  9.7 km/h 67 % 0 in /  0.0 mm
23:52 46 °F /  7.8 °C 36.1 °F /  2.3 °C 30 in /  1014.4 hPa ENE 3 mph /  4.8 km/h 8 mph /  12.9 km/h 68 % 0 in /  0.0 mm
23:57 46 °F /  7.8 °C 36.1 °F /  2.3 °C 30 in /  1014.4 hPa ENE 2 mph /  3.2 km/h 6 mph /  9.7 km/h 68 % 0 in /  0.0 mm
Meteo18
Compliments of Weather Underground - 4 mb

Script developed by  Jim McMurry - jmcmurry@mwt.net Adapted for the template by  Wim van der Kuil - Leuven-Template.eu

You find our weather info also at:

European Weather Network

Weather Underground

Equipment we use:

Weather-station
Davis Vue

Weather-program
Meteohub

Weather-server
Raspberry PI 2 B+

Provider
1 and 1

Davis Vue

Meteohub

Raspberry PI 2 B+

1 and 1